createdAt,value
2022-10-12T00:00:19.483Z,11.50
2022-10-12T00:02:46.880Z,11.40
2022-10-12T00:05:14.304Z,11.42
2022-10-12T00:07:43.091Z,11.50
2022-10-12T00:10:10.502Z,11.41
2022-10-12T00:12:37.888Z,11.35
2022-10-12T00:15:06.206Z,11.37
2022-10-12T00:17:33.628Z,11.44
2022-10-12T00:20:01.049Z,11.35
2022-10-12T00:22:28.467Z,11.42
2022-10-12T00:24:57.174Z,11.37
2022-10-12T00:27:24.733Z,11.51
2022-10-12T00:29:52.161Z,11.27
2022-10-12T00:32:20.224Z,11.21
2022-10-12T00:34:47.594Z,11.20
2022-10-12T00:37:14.992Z,11.56
2022-10-12T00:39:42.363Z,11.66
2022-10-12T00:42:13.396Z,11.68
2022-10-12T00:44:44.500Z,11.78
2022-10-12T00:47:19.547Z,11.60
2022-10-12T00:49:51.264Z,11.45
2022-10-12T00:52:24.095Z,11.26
2022-10-12T00:54:54.627Z,11.04
2022-10-12T00:57:24.434Z,11.23
2022-10-12T00:59:56.644Z,11.17
2022-10-12T01:02:26.925Z,11.15
2022-10-12T01:04:54.835Z,11.19
2022-10-12T01:07:22.234Z,11.01
2022-10-12T01:09:49.978Z,10.95
2022-10-12T01:12:18.319Z,10.91
2022-10-12T01:14:47.132Z,11.25
2022-10-12T01:17:24.106Z,11.31
2022-10-12T01:20:07.577Z,11.44
2022-10-12T01:22:43.000Z,11.34
2022-10-12T01:25:22.874Z,11.29
2022-10-12T01:27:53.867Z,11.20
2022-10-12T01:30:23.969Z,11.22
2022-10-12T01:33:06.740Z,11.24
2022-10-12T01:35:40.723Z,10.98
2022-10-12T01:38:18.884Z,10.86
2022-10-12T01:40:54.853Z,10.93
2022-10-12T01:43:23.559Z,10.97
2022-10-12T01:45:52.329Z,10.95
2022-10-12T01:48:19.865Z,10.69
2022-10-12T01:50:50.838Z,10.90
2022-10-12T01:53:32.363Z,10.99
2022-10-12T01:56:08.868Z,10.92
2022-10-12T01:58:50.748Z,10.94
2022-10-12T02:01:26.212Z,11.00
2022-10-12T02:04:01.928Z,10.86
2022-10-12T02:06:33.751Z,10.70
2022-10-12T02:09:06.973Z,10.60
2022-10-12T02:11:38.409Z,10.72
2022-10-12T02:14:10.117Z,10.82
2022-10-12T02:16:43.053Z,10.73
2022-10-12T02:19:14.469Z,10.86
2022-10-12T02:21:42.235Z,10.87
2022-10-12T02:24:12.566Z,10.75
2022-10-12T02:26:43.627Z,10.58
2022-10-12T02:29:14.495Z,10.56
2022-10-12T02:31:52.147Z,10.55
2022-10-12T02:34:24.572Z,10.47
2022-10-12T02:36:57.704Z,10.56
2022-10-12T02:39:31.186Z,10.55
2022-10-12T02:42:04.854Z,10.81
2022-10-12T02:44:35.573Z,10.70
2022-10-12T02:47:07.924Z,10.58
2022-10-12T02:49:36.976Z,10.65
2022-10-12T02:52:06.700Z,10.69
2022-10-12T02:54:34.422Z,10.61
2022-10-12T02:57:01.888Z,10.49
2022-10-12T02:59:29.428Z,10.58
2022-10-12T03:01:56.837Z,10.56
2022-10-12T03:04:25.611Z,10.74
2022-10-12T03:06:53.056Z,10.69
2022-10-12T03:09:20.753Z,10.63
2022-10-12T03:11:48.245Z,10.69
2022-10-12T03:14:16.803Z,10.59
2022-10-12T03:16:46.462Z,10.64
2022-10-12T03:19:14.124Z,10.65
2022-10-12T03:21:42.850Z,10.68
2022-10-12T03:24:10.305Z,10.79
2022-10-12T03:26:37.754Z,10.60
2022-10-12T03:29:05.459Z,10.54
2022-10-12T03:31:32.857Z,10.58
2022-10-12T03:34:00.499Z,10.63
2022-10-12T03:36:27.940Z,10.68
2022-10-12T03:38:56.672Z,10.58
2022-10-12T03:41:24.073Z,10.43
2022-10-12T03:43:51.637Z,10.44
2022-10-12T03:46:19.051Z,10.48
2022-10-12T03:48:46.464Z,10.53
2022-10-12T03:51:13.964Z,10.45
2022-10-12T03:53:45.429Z,10.40
2022-10-12T03:56:14.527Z,10.43
2022-10-12T03:58:41.936Z,10.45
2022-10-12T04:01:09.367Z,10.51
2022-10-12T04:03:36.786Z,10.66
2022-10-12T04:06:04.725Z,10.59
2022-10-12T04:08:32.137Z,10.64
2022-10-12T04:10:59.586Z,10.69
2022-10-12T04:13:28.306Z,10.56
2022-10-12T04:15:55.696Z,10.45
2022-10-12T04:18:23.142Z,10.57
2022-10-12T04:20:50.917Z,10.59
2022-10-12T04:23:18.307Z,10.74
2022-10-12T04:25:45.659Z,10.76
2022-10-12T04:28:13.418Z,10.70
2022-10-12T04:30:42.189Z,10.75
2022-10-12T04:33:09.605Z,10.69
2022-10-12T04:35:37.203Z,10.49
2022-10-12T04:38:05.117Z,10.47
2022-10-12T04:40:32.552Z,10.81
2022-10-12T04:42:59.961Z,11.27
2022-10-12T04:45:27.425Z,10.90
2022-10-12T04:47:56.243Z,10.67
2022-10-12T04:50:29.724Z,10.46
2022-10-12T04:52:57.481Z,10.54
2022-10-12T04:55:25.075Z,10.77
2022-10-12T04:57:52.448Z,10.65
2022-10-12T05:00:19.863Z,10.50
2022-10-12T05:02:47.757Z,10.45
2022-10-12T05:05:16.633Z,10.55
2022-10-12T05:07:44.084Z,10.52
2022-10-12T05:10:11.741Z,10.48
2022-10-12T05:12:39.471Z,10.34
2022-10-12T05:15:08.249Z,10.17
2022-10-12T05:17:35.708Z,10.28
2022-10-12T05:20:03.305Z,10.30
2022-10-12T05:22:32.270Z,10.34
2022-10-12T05:24:59.671Z,10.20
2022-10-12T05:27:27.128Z,10.34
2022-10-12T05:29:54.668Z,10.28
2022-10-12T05:32:22.063Z,10.38
2022-10-12T05:34:49.472Z,10.45
2022-10-12T05:37:17.343Z,10.31
2022-10-12T05:39:46.672Z,10.51
2022-10-12T05:42:14.045Z,10.36
2022-10-12T05:44:41.422Z,10.33
2022-10-12T05:47:08.864Z,10.28
2022-10-12T05:49:36.304Z,10.36
2022-10-12T05:52:03.965Z,10.49
2022-10-12T05:54:31.399Z,10.48
2022-10-12T05:57:00.150Z,10.44
2022-10-12T05:59:27.546Z,10.51
2022-10-12T06:01:55.067Z,10.63
2022-10-12T06:04:22.489Z,10.49
2022-10-12T06:06:49.907Z,10.55
2022-10-12T06:09:17.357Z,10.65
2022-10-12T06:11:44.818Z,10.76
2022-10-12T06:14:15.168Z,10.64
2022-10-12T06:16:42.681Z,10.63
2022-10-12T06:19:11.755Z,10.73
2022-10-12T06:21:39.373Z,10.73
2022-10-12T06:24:07.321Z,10.90
2022-10-12T06:26:34.991Z,11.06
2022-10-12T06:29:02.374Z,11.06
2022-10-12T06:31:32.415Z,11.03
2022-10-12T06:33:59.848Z,11.04
2022-10-12T06:36:27.254Z,11.11
2022-10-12T06:38:55.173Z,11.26
2022-10-12T06:41:22.682Z,11.21
2022-10-12T06:43:50.071Z,11.22
2022-10-12T06:46:17.631Z,11.25
2022-10-12T06:48:46.404Z,11.32
2022-10-12T06:51:13.909Z,11.31
2022-10-12T06:53:41.284Z,11.39
2022-10-12T06:56:09.635Z,11.53
2022-10-12T06:58:37.385Z,11.46
2022-10-12T07:01:05.637Z,11.53
2022-10-12T07:03:33.104Z,11.64
2022-10-12T07:06:08.920Z,11.63
2022-10-12T07:08:36.328Z,11.77
2022-10-12T07:11:05.037Z,11.96
2022-10-12T07:13:32.722Z,11.96
2022-10-12T07:16:00.289Z,12.01
2022-10-12T07:18:27.806Z,12.07
2022-10-12T07:20:59.639Z,12.07
2022-10-12T07:23:28.491Z,12.19
2022-10-12T07:25:56.071Z,12.24
2022-10-12T07:28:23.572Z,12.31
2022-10-12T07:30:51.330Z,12.32
2022-10-12T07:33:18.793Z,12.41
2022-10-12T07:36:12.828Z,12.51
2022-10-12T07:38:44.992Z,12.56
2022-10-12T07:41:12.910Z,12.62
2022-10-12T07:43:40.340Z,12.84
2022-10-12T07:46:08.802Z,12.80
2022-10-12T07:48:36.316Z,12.70
2022-10-12T07:51:05.192Z,12.99
2022-10-12T07:53:34.832Z,12.88
2022-10-12T07:56:05.327Z,13.17
2022-10-12T07:58:32.998Z,13.22
2022-10-12T08:01:05.995Z,13.18
2022-10-12T08:03:33.455Z,13.17
2022-10-12T08:06:01.176Z,13.40
2022-10-12T08:08:28.599Z,13.33
2022-10-12T08:10:57.736Z,13.49
2022-10-12T08:13:26.470Z,13.55
2022-10-12T08:15:54.101Z,13.26
2022-10-12T08:18:21.590Z,13.23
2022-10-12T08:20:49.161Z,13.66
2022-10-12T08:23:16.612Z,13.77
2022-10-12T08:25:51.677Z,13.58
2022-10-12T08:28:19.142Z,13.77
2022-10-12T08:30:47.954Z,14.15
2022-10-12T08:33:15.936Z,13.81
2022-10-12T08:35:43.959Z,13.79
2022-10-12T08:38:13.225Z,14.02
2022-10-12T08:40:50.678Z,14.05
2022-10-12T08:43:29.197Z,14.08
2022-10-12T08:46:00.725Z,14.24
2022-10-12T08:48:32.541Z,14.20
2022-10-12T08:51:03.805Z,14.31
2022-10-12T08:53:36.445Z,14.44
2022-10-12T08:56:03.963Z,14.50
2022-10-12T08:58:34.047Z,14.45
2022-10-12T09:01:21.966Z,14.58
2022-10-12T09:04:02.534Z,14.25
2022-10-12T09:06:35.896Z,14.64
2022-10-12T09:09:09.875Z,14.72
2022-10-12T09:11:55.122Z,14.78
2022-10-12T09:14:27.754Z,14.54
2022-10-12T09:16:57.584Z,14.49
2022-10-12T09:19:33.326Z,14.65
2022-10-12T09:22:02.276Z,14.94
2022-10-12T09:24:35.523Z,15.02
2022-10-12T09:27:14.547Z,15.15
2022-10-12T09:29:42.876Z,14.81
2022-10-12T09:32:35.217Z,14.73
2022-10-12T09:35:04.849Z,15.07
2022-10-12T09:37:34.232Z,15.18
2022-10-12T09:40:02.159Z,15.31
2022-10-12T09:42:29.558Z,15.24
2022-10-12T09:45:00.313Z,15.45
2022-10-12T09:47:31.441Z,15.15
2022-10-12T09:50:01.062Z,15.33
2022-10-12T09:52:31.837Z,15.43
2022-10-12T09:55:05.216Z,15.28
2022-10-12T09:57:35.060Z,15.40
2022-10-12T10:00:06.360Z,15.32
2022-10-12T10:02:48.711Z,15.71
2022-10-12T10:05:25.131Z,15.59
2022-10-12T10:07:52.740Z,15.70
2022-10-12T10:10:28.273Z,15.83
2022-10-12T10:13:01.097Z,15.72
2022-10-12T10:15:31.243Z,15.64
2022-10-12T10:18:01.909Z,15.72
2022-10-12T10:20:32.810Z,15.78
2022-10-12T10:23:01.301Z,15.90
2022-10-12T10:25:29.043Z,15.46
2022-10-12T10:28:22.580Z,15.32
2022-10-12T10:30:59.060Z,15.86
2022-10-12T10:33:27.882Z,16.19
2022-10-12T10:36:00.313Z,15.47
2022-10-12T10:38:28.994Z,15.52
2022-10-12T10:40:58.066Z,15.98
2022-10-12T10:43:29.728Z,15.41
2022-10-12T10:45:59.921Z,16.12
2022-10-12T10:48:32.020Z,16.21
2022-10-12T10:51:02.296Z,15.95
2022-10-12T10:53:34.040Z,16.14
2022-10-12T10:56:06.486Z,16.12
2022-10-12T10:58:38.184Z,15.75
2022-10-12T11:01:16.452Z,15.87
2022-10-12T11:03:54.384Z,16.14
2022-10-12T11:06:29.661Z,16.42
2022-10-12T11:09:03.763Z,16.54
2022-10-12T11:11:36.007Z,16.31
2022-10-12T11:14:10.667Z,15.65
2022-10-12T11:16:44.598Z,16.08
2022-10-12T11:19:25.409Z,16.34
2022-10-12T11:21:57.452Z,15.92
2022-10-12T11:24:29.411Z,16.44
2022-10-12T11:27:02.758Z,16.70
2022-10-12T11:29:30.598Z,16.34
2022-10-12T11:32:04.057Z,16.76
2022-10-12T11:34:43.410Z,16.87
2022-10-12T11:37:20.316Z,16.71
2022-10-12T11:39:53.567Z,16.65
2022-10-12T11:42:32.004Z,16.35
2022-10-12T11:45:01.941Z,16.35
2022-10-12T11:47:35.433Z,16.64
2022-10-12T11:50:08.266Z,16.42
2022-10-12T11:52:41.702Z,17.16
2022-10-12T11:55:28.073Z,16.89
2022-10-12T11:58:00.044Z,16.90
2022-10-12T12:00:38.113Z,16.97
2022-10-12T12:03:19.873Z,16.73
2022-10-12T12:05:48.704Z,16.07
2022-10-12T12:08:24.172Z,16.57
2022-10-12T12:11:05.369Z,17.16
2022-10-12T12:13:34.993Z,16.96
2022-10-12T12:16:33.609Z,16.75
2022-10-12T12:19:16.030Z,17.31
2022-10-12T12:22:14.515Z,16.96
2022-10-12T12:24:53.347Z,17.27
2022-10-12T12:27:31.511Z,16.61
2022-10-12T12:30:01.172Z,16.57
2022-10-12T12:32:42.819Z,17.00
2022-10-12T12:35:21.057Z,17.23
2022-10-12T12:37:50.347Z,16.91
2022-10-12T12:40:24.541Z,17.24
2022-10-12T12:42:51.967Z,17.14
2022-10-12T12:45:41.985Z,17.13
2022-10-12T12:48:10.818Z,16.94
2022-10-12T12:50:41.633Z,17.28
2022-10-12T12:53:18.519Z,17.40
2022-10-12T12:56:03.487Z,17.28
2022-10-12T12:58:49.088Z,17.07
2022-10-12T13:01:45.349Z,17.20
2022-10-12T13:04:41.847Z,17.00
2022-10-12T13:07:34.824Z,17.24
2022-10-12T13:10:17.649Z,16.94
2022-10-12T13:13:02.592Z,16.94
2022-10-12T13:15:38.504Z,17.22
2022-10-12T13:18:47.352Z,17.26
2022-10-12T13:21:19.180Z,16.72
2022-10-12T13:23:49.234Z,16.48
2022-10-12T13:26:22.719Z,16.56
2022-10-12T13:28:50.744Z,17.15
2022-10-12T13:31:24.087Z,17.37
2022-10-12T13:34:00.385Z,17.27
2022-10-12T13:36:30.175Z,17.46
2022-10-12T13:38:59.528Z,17.23
2022-10-12T13:41:31.294Z,17.30
2022-10-12T13:44:00.648Z,17.40
2022-10-12T13:46:41.637Z,17.36
2022-10-12T13:49:17.834Z,17.39
2022-10-12T13:51:48.408Z,17.39
2022-10-12T13:54:18.601Z,17.28
2022-10-12T13:56:49.055Z,16.89
2022-10-12T13:59:19.792Z,17.23
2022-10-12T14:01:53.031Z,17.15
2022-10-12T14:04:20.821Z,16.78
2022-10-12T14:06:53.899Z,16.59
2022-10-12T14:09:25.062Z,16.61
2022-10-12T14:11:55.444Z,16.52
2022-10-12T14:14:29.336Z,16.80
2022-10-12T14:16:56.807Z,17.15
2022-10-12T14:19:34.363Z,17.19
2022-10-12T14:22:03.438Z,17.39
2022-10-12T14:24:31.616Z,17.34
2022-10-12T14:27:02.736Z,17.52
2022-10-12T14:29:35.710Z,17.08
2022-10-12T14:32:05.630Z,16.41
2022-10-12T14:34:42.400Z,16.90
2022-10-12T14:37:36.848Z,16.62
2022-10-12T14:40:35.476Z,16.64
2022-10-12T14:43:08.035Z,16.29
2022-10-12T14:45:35.509Z,16.90
2022-10-12T14:48:04.974Z,16.89
2022-10-12T14:50:33.296Z,17.14
2022-10-12T14:53:04.412Z,16.84
2022-10-12T14:55:34.983Z,16.94
2022-10-12T14:58:03.643Z,16.62
2022-10-12T15:00:34.878Z,16.95
2022-10-12T15:03:02.820Z,17.18
2022-10-12T15:05:32.520Z,17.12
2022-10-12T15:08:00.693Z,16.85
2022-10-12T15:10:29.167Z,17.16
2022-10-12T15:12:56.686Z,16.73
2022-10-12T15:15:31.450Z,16.88
2022-10-12T15:18:00.530Z,16.60
2022-10-12T15:20:29.658Z,16.48
2022-10-12T15:22:57.471Z,16.89
2022-10-12T15:25:29.060Z,16.84
2022-10-12T15:27:56.508Z,16.89
2022-10-12T15:30:23.894Z,16.66
2022-10-12T15:32:51.315Z,16.75
2022-10-12T15:35:23.857Z,16.95
2022-10-12T15:37:52.173Z,16.95
2022-10-12T15:40:21.513Z,16.75
2022-10-12T15:42:49.098Z,16.05
2022-10-12T15:45:19.788Z,16.79
2022-10-12T15:47:47.884Z,16.69
2022-10-12T15:50:16.339Z,16.63
2022-10-12T15:52:45.349Z,16.69
2022-10-12T15:55:16.700Z,16.84
2022-10-12T15:57:44.288Z,16.93
2022-10-12T16:00:13.384Z,17.05
2022-10-12T16:02:41.163Z,16.79
2022-10-12T16:05:17.519Z,16.56
2022-10-12T16:07:46.464Z,16.92
2022-10-12T16:10:15.362Z,16.88
2022-10-12T16:12:44.708Z,16.34
2022-10-12T16:15:13.692Z,16.74
2022-10-12T16:17:41.475Z,16.45
2022-10-12T16:20:10.724Z,16.50
2022-10-12T16:22:38.713Z,16.15
2022-10-12T16:25:10.255Z,16.43
2022-10-12T16:27:38.454Z,16.27
2022-10-12T16:30:07.636Z,16.36
2022-10-12T16:32:35.169Z,16.57
2022-10-12T16:35:02.736Z,16.34
2022-10-12T16:37:30.234Z,16.58
2022-10-12T16:39:57.802Z,15.70
2022-10-12T16:42:26.733Z,15.83
2022-10-12T16:44:54.137Z,16.03
2022-10-12T16:47:22.003Z,15.75
2022-10-12T16:49:49.492Z,15.53
2022-10-12T16:52:17.132Z,15.35
2022-10-12T16:54:44.716Z,15.55
2022-10-12T16:57:12.137Z,15.65
2022-10-12T16:59:40.862Z,15.36
2022-10-12T17:02:08.510Z,15.46
2022-10-12T17:04:35.956Z,15.74
2022-10-12T17:07:03.409Z,15.63
2022-10-12T17:09:30.967Z,15.61
2022-10-12T17:11:58.592Z,15.74
2022-10-12T17:14:26.091Z,15.69
2022-10-12T17:16:57.444Z,15.61
2022-10-12T17:19:31.848Z,15.57
2022-10-12T17:22:00.897Z,15.60
2022-10-12T17:24:30.327Z,15.47
2022-10-12T17:26:58.262Z,15.54
2022-10-12T17:29:27.902Z,15.42
2022-10-12T17:31:57.927Z,15.33
2022-10-12T17:34:27.242Z,15.35
2022-10-12T17:36:56.365Z,15.35
2022-10-12T17:39:25.060Z,15.15
2022-10-12T17:41:53.118Z,15.04
2022-10-12T17:44:20.826Z,15.19
2022-10-12T17:46:49.616Z,15.16
2022-10-12T17:49:24.474Z,15.07
2022-10-12T17:51:52.476Z,14.98
2022-10-12T17:54:20.921Z,14.95
2022-10-12T17:56:48.697Z,15.06
2022-10-12T17:59:19.151Z,15.07
2022-10-12T18:01:47.337Z,14.98
2022-10-12T18:04:14.892Z,14.88
2022-10-12T18:06:44.048Z,14.97
2022-10-12T18:09:11.951Z,15.14
2022-10-12T18:11:39.830Z,15.19
2022-10-12T18:14:09.772Z,15.17
2022-10-12T18:16:38.387Z,14.93
2022-10-12T18:19:07.674Z,15.10
2022-10-12T18:21:35.530Z,15.03
2022-10-12T18:24:07.336Z,15.05
2022-10-12T18:26:36.433Z,14.92
2022-10-12T18:29:05.145Z,14.81
2022-10-12T18:31:32.558Z,14.55
2022-10-12T18:33:59.974Z,14.71
2022-10-12T18:36:28.615Z,14.75
2022-10-12T18:38:56.127Z,14.69
2022-10-12T18:41:26.180Z,14.72
2022-10-12T18:43:57.763Z,14.64
2022-10-12T18:46:26.821Z,14.53
2022-10-12T18:48:54.369Z,14.64
2022-10-12T18:51:24.933Z,14.65
2022-10-12T18:53:52.340Z,14.65
2022-10-12T18:56:21.231Z,14.60
2022-10-12T18:58:50.228Z,14.45
2022-10-12T19:01:19.937Z,14.47
2022-10-12T19:03:48.127Z,14.54
2022-10-12T19:06:18.153Z,14.52
2022-10-12T19:08:47.587Z,14.51
2022-10-12T19:11:17.555Z,14.60
2022-10-12T19:13:45.695Z,14.54
2022-10-12T19:16:17.159Z,14.50
2022-10-12T19:18:44.644Z,14.38
2022-10-12T19:21:14.113Z,14.43
2022-10-12T19:23:42.231Z,14.42
2022-10-12T19:26:11.998Z,14.53
2022-10-12T19:28:39.796Z,14.48
2022-10-12T19:31:09.859Z,14.47
2022-10-12T19:33:39.120Z,14.40
2022-10-12T19:36:08.248Z,14.27
2022-10-12T19:38:35.952Z,14.38
2022-10-12T19:41:03.945Z,14.31
2022-10-12T19:43:33.287Z,14.34
2022-10-12T19:46:03.382Z,14.24
2022-10-12T19:48:30.897Z,14.16
2022-10-12T19:51:01.385Z,14.11
2022-10-12T19:53:29.233Z,14.34
2022-10-12T19:55:59.951Z,14.49
2022-10-12T19:58:27.473Z,14.50
2022-10-12T20:01:01.876Z,14.40
2022-10-12T20:03:29.631Z,14.44
2022-10-12T20:05:57.184Z,14.19
2022-10-12T20:08:25.945Z,14.29
2022-10-12T20:10:53.956Z,14.25
2022-10-12T20:13:21.598Z,14.17
2022-10-12T20:15:52.918Z,14.14
2022-10-12T20:18:20.812Z,14.13
2022-10-12T20:20:48.812Z,14.16
2022-10-12T20:23:16.584Z,13.88
2022-10-12T20:25:46.861Z,14.11
2022-10-12T20:28:14.619Z,14.01
2022-10-12T20:30:42.892Z,14.07
2022-10-12T20:33:11.181Z,13.87
2022-10-12T20:35:38.597Z,13.97
2022-10-12T20:38:06.013Z,14.01
2022-10-12T20:40:33.422Z,13.82
2022-10-12T20:43:06.235Z,13.89
2022-10-12T20:45:35.107Z,14.01
2022-10-12T20:48:02.574Z,14.08
2022-10-12T20:50:30.113Z,14.02
2022-10-12T20:53:00.954Z,14.02
2022-10-12T20:55:28.477Z,13.81
2022-10-12T20:57:56.195Z,13.87
2022-10-12T21:00:25.209Z,13.95
2022-10-12T21:02:52.698Z,13.94
2022-10-12T21:05:20.317Z,13.80
2022-10-12T21:07:47.957Z,13.89
2022-10-12T21:10:15.419Z,13.85
2022-10-12T21:12:42.834Z,13.81
2022-10-12T21:15:11.464Z,13.76
2022-10-12T21:17:40.176Z,13.74
2022-10-12T21:20:08.760Z,13.80
2022-10-12T21:22:36.202Z,13.64
2022-10-12T21:25:03.810Z,13.73
2022-10-12T21:27:31.312Z,13.76
2022-10-12T21:29:58.696Z,12.81
2022-10-12T21:32:26.170Z,12.56
2022-10-12T21:34:54.893Z,12.77
2022-10-12T21:37:22.485Z,12.84
2022-10-12T21:39:54.374Z,12.84
2022-10-12T21:42:22.044Z,12.67
2022-10-12T21:44:51.157Z,12.71
2022-10-12T21:47:18.637Z,12.55
2022-10-12T21:49:46.165Z,12.38
2022-10-12T21:52:15.056Z,12.64
2022-10-12T21:54:42.766Z,12.18
2022-10-12T21:57:11.359Z,12.32
2022-10-12T21:59:38.749Z,12.61
2022-10-12T22:02:06.307Z,13.09
2022-10-12T22:04:34.238Z,12.61
2022-10-12T22:07:01.621Z,12.81
2022-10-12T22:09:33.708Z,12.04
2022-10-12T22:12:01.097Z,11.86
2022-10-12T22:14:28.545Z,12.52
2022-10-12T22:16:56.029Z,12.50
2022-10-12T22:19:23.813Z,12.85
2022-10-12T22:21:52.692Z,12.88
2022-10-12T22:24:20.984Z,12.94
2022-10-12T22:26:50.067Z,12.93
2022-10-12T22:29:17.484Z,12.91
2022-10-12T22:31:46.307Z,13.08
2022-10-12T22:34:13.842Z,13.13
2022-10-12T22:36:41.347Z,12.86
2022-10-12T22:39:08.764Z,12.85
2022-10-12T22:41:36.165Z,12.96
2022-10-12T22:44:05.130Z,12.95
2022-10-12T22:46:32.578Z,12.84
2022-10-12T22:49:00.725Z,12.78
2022-10-12T22:51:31.930Z,12.87
2022-10-12T22:53:59.781Z,12.79
2022-10-12T22:56:27.255Z,12.78
2022-10-12T22:58:55.831Z,12.73
2022-10-12T23:01:25.181Z,12.65
2022-10-12T23:03:53.015Z,12.80
2022-10-12T23:06:20.943Z,12.68
2022-10-12T23:08:48.987Z,12.81
2022-10-12T23:11:18.749Z,12.80
2022-10-12T23:13:48.073Z,12.92
2022-10-12T23:16:18.131Z,12.71
2022-10-12T23:18:47.075Z,12.82
2022-10-12T23:21:16.473Z,12.71
2022-10-12T23:23:45.817Z,12.86
2022-10-12T23:26:14.998Z,12.89
2022-10-12T23:28:42.610Z,12.64
2022-10-12T23:31:12.190Z,12.68
2022-10-12T23:33:39.834Z,12.74
2022-10-12T23:36:10.939Z,12.84
2022-10-12T23:38:40.209Z,12.81
2022-10-12T23:41:08.089Z,12.72
2022-10-12T23:43:36.073Z,12.78
2022-10-12T23:46:04.389Z,12.73
2022-10-12T23:48:32.221Z,12.69
2022-10-12T23:50:59.725Z,12.53
2022-10-12T23:53:29.254Z,12.47
2022-10-12T23:55:56.799Z,12.31
2022-10-12T23:58:24.200Z,12.54
